Time;durP1;ratioP1;P1;durP2;ratioP2;P2;SDS_P1;SDS_P2;PMS_P1;PMS_P2;Temp;Humidity;BMP_temperature;BMP_pressure;BME280_temperature;BME280_humidity;BME280_pressure;Samples;Min_cycle;Max_cycle;Signal;HPM_P1;HPM_P2
2023/04/24 00:00:58;;;;;;;4.95;4.10;;;11.20;99.90;;;;;;5048448;28;20202;-77
2023/04/24 00:03:24;;;;;;;6.20;4.53;;;11.10;99.90;;;;;;5049078;28;20701;-77
2023/04/24 00:05:50;;;;;;;8.05;4.57;;;11.10;99.90;;;;;;5051803;28;20208;-76
2023/04/24 00:08:16;;;;;;;4.85;4.38;;;11.00;99.90;;;;;;5033505;28;20206;-77
2023/04/24 00:10:42;;;;;;;3.95;3.75;;;11.10;99.90;;;;;;5036282;28;20175;-77
2023/04/24 00:13:08;;;;;;;3.47;3.28;;;11.20;99.90;;;;;;5045082;28;20181;-77
2023/04/24 00:15:34;;;;;;;4.40;3.83;;;11.10;99.90;;;;;;5048510;28;20222;-78
2023/04/24 00:18:01;;;;;;;4.55;4.03;;;11.10;99.90;;;;;;5039346;28;20215;-77
2023/04/24 00:20:29;;;;;;;4.70;3.97;;;11.10;99.90;;;;;;5039737;28;20196;-77
2023/04/24 00:22:55;;;;;;;5.18;4.50;;;11.00;99.90;;;;;;5057798;28;20195;-76
2023/04/24 00:25:21;;;;;;;6.07;5.30;;;11.00;99.90;;;;;;5043980;28;20699;-77
2023/04/24 00:27:46;;;;;;;4.65;4.35;;;11.00;99.90;;;;;;5035434;28;20224;-76
2023/04/24 00:30:12;;;;;;;5.43;5.03;;;11.00;99.90;;;;;;5049090;28;20208;-77
2023/04/24 00:32:38;;;;;;;4.75;4.43;;;11.00;99.90;;;;;;5057271;28;20202;-78
2023/04/24 00:35:05;;;;;;;5.78;5.10;;;11.10;99.90;;;;;;5052646;28;20687;-77
2023/04/24 00:37:31;;;;;;;6.75;4.85;;;11.10;99.90;;;;;;5052248;28;20219;-79
2023/04/24 00:39:57;;;;;;;5.25;4.80;;;11.10;99.90;;;;;;5054061;28;20175;-79
2023/04/24 00:42:22;;;;;;;5.30;4.90;;;11.20;99.90;;;;;;5053953;28;20626;-78
2023/04/24 00:44:48;;;;;;;6.03;5.53;;;11.30;99.90;;;;;;5040070;28;20183;-80
2023/04/24 00:47:14;;;;;;;6.03;5.57;;;11.30;99.90;;;;;;5056573;28;20206;-77
2023/04/24 00:49:40;;;;;;;6.68;6.07;;;11.30;99.90;;;;;;5054423;28;20196;-77
2023/04/24 00:52:08;;;;;;;6.65;6.03;;;11.30;99.90;;;;;;5039123;28;20235;-77
2023/04/24 00:54:38;;;;;;;6.35;5.80;;;11.30;99.90;;;;;;5053638;28;20570;-77
2023/04/24 00:57:04;;;;;;;5.65;5.25;;;11.20;99.90;;;;;;5052037;28;20205;-78
2023/04/24 00:59:31;;;;;;;5.45;5.03;;;11.20;99.90;;;;;;5052105;28;20208;-77
2023/04/24 01:01:58;;;;;;;5.75;5.25;;;11.20;99.90;;;;;;5052925;28;20184;-77
2023/04/24 01:04:24;;;;;;;6.25;5.75;;;11.30;99.90;;;;;;5055110;28;20196;-77
2023/04/24 01:06:50;;;;;;;6.10;5.60;;;11.20;99.90;;;;;;5050746;28;20203;-77
2023/04/24 01:09:17;;;;;;;6.35;5.85;;;11.30;99.90;;;;;;5053353;28;20259;-76
2023/04/24 01:11:43;;;;;;;7.00;6.28;;;11.30;99.90;;;;;;5054795;28;20194;-78
2023/04/24 01:14:09;;;;;;;7.05;5.88;;;11.30;99.90;;;;;;5057289;28;20184;-77
2023/04/24 01:16:35;;;;;;;7.15;6.57;;;11.30;99.90;;;;;;5053163;28;20223;-77
2023/04/24 01:19:01;;;;;;;6.15;5.65;;;11.30;99.90;;;;;;5040675;28;20528;-77
2023/04/24 01:21:34;;;;;;;7.50;6.90;;;11.30;99.90;;;;;;5041498;28;20220;-76
2023/04/24 01:24:00;;;;;;;7.45;6.85;;;11.40;99.90;;;;;;5049781;28;20280;-77
2023/04/24 01:26:25;;;;;;;6.90;6.20;;;11.40;99.90;;;;;;5035675;28;20610;-80
2023/04/24 01:28:52;;;;;;;7.00;6.50;;;11.40;99.90;;;;;;5046489;28;20596;-76
2023/04/24 01:31:18;;;;;;;7.88;7.22;;;11.40;99.90;;;;;;5050773;28;20263;-80
2023/04/24 01:33:44;;;;;;;7.40;6.80;;;11.30;99.90;;;;;;5052449;28;20665;-76
2023/04/24 01:36:14;;;;;;;6.85;6.35;;;11.30;99.90;;;;;;5059856;28;20233;-77
2023/04/24 01:38:39;;;;;;;8.00;7.10;;;11.30;99.90;;;;;;5049851;28;20180;-76
2023/04/24 01:41:05;;;;;;;8.50;7.70;;;11.30;99.90;;;;;;5053340;28;20256;-81
2023/04/24 01:43:31;;;;;;;10.98;10.00;;;11.30;99.90;;;;;;5034486;28;20682;-77
2023/04/24 01:45:57;;;;;;;10.15;9.30;;;11.20;99.90;;;;;;5032772;28;20721;-77
2023/04/24 01:48:23;;;;;;;8.82;8.02;;;11.30;99.90;;;;;;5049576;28;20183;-76
2023/04/24 01:50:49;;;;;;;8.07;7.43;;;11.20;99.90;;;;;;5032158;28;20219;-79
2023/04/24 01:53:14;;;;;;;8.40;7.55;;;11.20;99.90;;;;;;5058310;28;20183;-76
2023/04/24 01:55:41;;;;;;;9.48;8.10;;;11.20;99.90;;;;;;5056474;28;20200;-76
2023/04/24 01:58:07;;;;;;;8.65;7.32;;;11.10;99.90;;;;;;5035124;28;20663;-78
2023/04/24 02:00:33;;;;;;;8.63;7.82;;;11.10;99.90;;;;;;5047731;28;20195;-77
2023/04/24 02:02:58;;;;;;;10.13;9.32;;;11.10;99.90;;;;;;5052714;28;20203;-77
2023/04/24 02:05:24;;;;;;;11.63;10.57;;;11.10;99.90;;;;;;5038887;28;20682;-78
2023/04/24 02:07:50;;;;;;;13.02;11.82;;;11.20;99.90;;;;;;5053276;28;20267;-78
2023/04/24 02:10:15;;;;;;;11.27;10.27;;;11.30;99.90;;;;;;5052182;28;20184;-78
2023/04/24 02:12:41;;;;;;;11.55;10.45;;;11.20;99.90;;;;;;5054185;28;20192;-77
2023/04/24 02:15:07;;;;;;;12.38;11.07;;;11.10;99.90;;;;;;5052909;28;20200;-77
2023/04/24 02:17:32;;;;;;;28.02;11.43;;;11.10;99.90;;;;;;5044757;28;20183;-77
2023/04/24 02:19:58;;;;;;;12.35;11.15;;;11.20;99.90;;;;;;5056831;28;20280;-78
2023/04/24 02:22:24;;;;;;;11.63;10.63;;;11.20;99.90;;;;;;5052558;28;20666;-78
2023/04/24 02:24:49;;;;;;;10.82;9.88;;;11.20;99.90;;;;;;5035026;28;20176;-78
2023/04/24 02:27:15;;;;;;;10.85;9.85;;;11.10;99.90;;;;;;5048523;28;20618;-79
2023/04/24 02:29:41;;;;;;;11.32;10.32;;;11.10;99.90;;;;;;5049514;28;20267;-77
2023/04/24 02:32:06;;;;;;;12.25;9.98;;;11.00;99.90;;;;;;5048008;28;20216;-77
2023/04/24 02:34:32;;;;;;;11.00;10.00;;;11.00;99.90;;;;;;5045189;28;20250;-79
2023/04/24 02:36:57;;;;;;;10.40;9.32;;;11.00;99.90;;;;;;5050353;28;20710;-77
2023/04/24 02:39:23;;;;;;;9.70;8.90;;;10.90;99.90;;;;;;5044928;28;20184;-78
2023/04/24 02:41:49;;;;;;;10.60;9.63;;;11.00;99.90;;;;;;5051238;28;20195;-78
2023/04/24 02:44:14;;;;;;;9.10;8.30;;;11.00;99.90;;;;;;5057930;28;20213;-78
2023/04/24 02:46:41;;;;;;;9.48;8.57;;;11.00;99.90;;;;;;5058197;28;20192;-78
2023/04/24 02:49:07;;;;;;;9.57;8.60;;;11.00;99.90;;;;;;5053333;28;20173;-77
2023/04/24 02:51:32;;;;;;;9.30;8.40;;;11.00;99.90;;;;;;5051222;28;20176;-78
2023/04/24 02:53:58;;;;;;;10.07;8.70;;;11.00;99.90;;;;;;5045177;28;20216;-78
2023/04/24 02:56:24;;;;;;;10.30;7.70;;;11.00;99.90;;;;;;5049905;28;20314;-78
2023/04/24 02:58:49;;;;;;;8.18;7.47;;;11.00;99.90;;;;;;5050502;28;20183;-78
2023/04/24 03:01:15;;;;;;;10.20;9.30;;;11.00;99.90;;;;;;5052409;28;20187;-77
2023/04/24 03:03:41;;;;;;;9.02;8.32;;;11.00;99.90;;;;;;5053851;28;20199;-77
2023/04/24 03:06:07;;;;;;;8.48;7.78;;;10.90;99.90;;;;;;5048956;28;20456;-76
2023/04/24 03:08:33;;;;;;;7.57;6.93;;;10.90;99.90;;;;;;5047643;28;20606;-78
2023/04/24 03:11:00;;;;;;;7.88;7.05;;;10.80;99.90;;;;;;5036730;28;20326;-81
2023/04/24 03:13:25;;;;;;;7.90;7.20;;;10.80;99.90;;;;;;5053945;28;20172;-81
2023/04/24 03:15:51;;;;;;;8.50;7.80;;;10.90;99.90;;;;;;5054304;28;20214;-77
2023/04/24 03:18:17;;;;;;;8.88;8.07;;;10.80;99.90;;;;;;5045042;28;20171;-78
2023/04/24 03:20:45;;;;;;;7.65;6.97;;;10.90;99.90;;;;;;5034218;28;20205;-77
2023/04/24 03:23:10;;;;;;;8.32;7.53;;;10.80;99.90;;;;;;5055178;28;20704;-77
2023/04/24 03:25:36;;;;;;;8.88;8.02;;;10.70;99.90;;;;;;5045051;28;20204;-77
2023/04/24 03:28:01;;;;;;;7.97;7.18;;;10.70;99.90;;;;;;5046188;28;20168;-80
2023/04/24 03:30:27;;;;;;;9.13;8.43;;;10.70;99.90;;;;;;5051768;28;20589;-77
2023/04/24 03:32:53;;;;;;;9.43;8.55;;;10.70;99.90;;;;;;5050935;28;20176;-77
2023/04/24 03:35:18;;;;;;;14.35;9.40;;;10.70;99.90;;;;;;5048428;28;20225;-78
2023/04/24 03:37:44;;;;;;;12.68;11.00;;;10.70;99.90;;;;;;5035628;28;20267;-77
2023/04/24 03:40:10;;;;;;;11.57;10.48;;;10.70;99.90;;;;;;5042431;28;20198;-77
2023/04/24 03:42:36;;;;;;;11.02;9.93;;;10.60;99.90;;;;;;5047147;28;20355;-77
2023/04/24 03:45:01;;;;;;;13.75;11.65;;;10.50;99.90;;;;;;5051013;28;20261;-76
2023/04/24 03:47:27;;;;;;;11.35;10.18;;;10.50;99.90;;;;;;5055175;28;20179;-77
2023/04/24 03:49:54;;;;;;;11.30;10.20;;;10.40;99.90;;;;;;5049818;28;20546;-79
2023/04/24 03:52:19;;;;;;;12.48;11.27;;;10.40;99.90;;;;;;5057319;28;20187;-76
2023/04/24 03:54:45;;;;;;;11.55;10.45;;;10.40;99.90;;;;;;5057634;28;20171;-77
2023/04/24 03:57:11;;;;;;;14.63;12.57;;;10.40;99.90;;;;;;5046361;28;20269;-77
2023/04/24 03:59:36;;;;;;;16.00;14.27;;;10.40;99.90;;;;;;5047965;28;20203;-77
2023/04/24 04:02:02;;;;;;;20.13;16.13;;;10.30;99.90;;;;;;5041163;28;20184;-76
2023/04/24 04:04:27;;;;;;;20.38;15.93;;;10.40;99.90;;;;;;5056615;28;20239;-76
2023/04/24 04:06:53;;;;;;;17.45;14.55;;;10.30;99.90;;;;;;5039493;28;20223;-78
2023/04/24 04:09:19;;;;;;;20.38;17.50;;;10.20;99.90;;;;;;5056616;28;20190;-76
2023/04/24 04:11:45;;;;;;;19.23;15.93;;;10.30;99.90;;;;;;5052698;28;20172;-76
2023/04/24 04:14:10;;;;;;;20.75;16.77;;;10.20;99.90;;;;;;5052799;28;20227;-76
2023/04/24 04:16:36;;;;;;;21.63;17.25;;;10.20;99.90;;;;;;5040331;28;20211;-76
2023/04/24 04:19:02;;;;;;;20.20;16.75;;;10.20;99.90;;;;;;5044116;28;20180;-78
2023/04/24 04:21:28;;;;;;;19.02;16.23;;;10.30;99.90;;;;;;5060007;28;20532;-78
2023/04/24 04:23:54;;;;;;;15.70;14.10;;;10.30;99.90;;;;;;5056698;28;20200;-77
2023/04/24 04:26:20;;;;;;;16.25;14.57;;;10.30;99.90;;;;;;5052547;28;20282;-79
2023/04/24 04:28:47;;;;;;;23.92;18.10;;;10.30;99.90;;;;;;5053646;28;20532;-78
2023/04/24 04:31:13;;;;;;;24.45;18.60;;;10.40;99.90;;;;;;5055993;28;20176;-79
2023/04/24 04:33:39;;;;;;;21.38;17.00;;;10.40;99.90;;;;;;5046590;28;20195;-77
2023/04/24 04:36:05;;;;;;;17.38;15.50;;;10.40;99.90;;;;;;5059848;28;20211;-77
2023/04/24 04:38:31;;;;;;;19.45;16.95;;;10.40;99.90;;;;;;5060126;28;20251;-78
2023/04/24 04:40:59;;;;;;;18.05;15.73;;;10.40;99.90;;;;;;5058603;28;20313;-85
2023/04/24 04:43:25;;;;;;;14.85;13.35;;;10.40;99.90;;;;;;5041686;28;20195;-79
2023/04/24 04:45:51;;;;;;;16.70;13.50;;;10.40;99.90;;;;;;5057556;28;20564;-79
2023/04/24 04:48:18;;;;;;;12.80;11.70;;;10.50;99.90;;;;;;5057011;28;20555;-78
2023/04/24 04:50:44;;;;;;;15.55;13.95;;;10.40;99.90;;;;;;5039635;28;20648;-78
2023/04/24 04:53:10;;;;;;;17.83;15.98;;;10.50;99.90;;;;;;5054872;28;20184;-76
2023/04/24 04:55:37;;;;;;;15.57;13.98;;;10.50;99.90;;;;;;5052446;28;20206;-77
2023/04/24 04:58:02;;;;;;;15.73;12.65;;;10.60;99.90;;;;;;5034149;28;20183;-79
2023/04/24 05:00:33;;;;;;;12.68;11.57;;;10.50;99.90;;;;;;5040977;28;20206;-77
2023/04/24 05:02:59;;;;;;;13.45;11.95;;;10.50;99.90;;;;;;5058392;28;20664;-78
2023/04/24 05:05:24;;;;;;;13.02;11.55;;;10.50;99.90;;;;;;5048129;28;20282;-77
2023/04/24 05:07:50;;;;;;;17.15;12.80;;;10.50;99.90;;;;;;5052775;28;20180;-78
2023/04/24 05:10:16;;;;;;;12.38;11.18;;;10.60;99.90;;;;;;5053811;28;20677;-78
2023/04/24 05:12:41;;;;;;;11.55;10.40;;;10.60;99.90;;;;;;5053190;28;20264;-78
2023/04/24 05:15:07;;;;;;;9.77;8.88;;;10.60;99.90;;;;;;5051779;28;20224;-79
2023/04/24 05:17:33;;;;;;;9.43;8.45;;;10.60;99.90;;;;;;5051257;28;20181;-77
2023/04/24 05:19:58;;;;;;;8.32;7.53;;;10.60;99.90;;;;;;5053346;28;20275;-76
2023/04/24 05:22:24;;;;;;;7.75;6.97;;;10.60;99.90;;;;;;5051027;28;20597;-77
2023/04/24 05:24:50;;;;;;;7.10;6.45;;;10.60;99.90;;;;;;5053427;28;20267;-78
2023/04/24 05:27:15;;;;;;;7.60;6.93;;;10.70;99.90;;;;;;5055016;28;20535;-77
2023/04/24 05:29:41;;;;;;;7.22;6.63;;;10.80;99.90;;;;;;5053085;28;20217;-77
2023/04/24 05:32:07;;;;;;;7.35;6.70;;;10.90;99.90;;;;;;5055517;28;20180;-78
2023/04/24 05:34:32;;;;;;;8.65;6.55;;;10.90;99.90;;;;;;5045567;28;20195;-78
2023/04/24 05:36:58;;;;;;;7.38;6.78;;;10.90;99.90;;;;;;5045983;28;20733;-79
2023/04/24 05:39:24;;;;;;;8.57;7.70;;;10.90;99.90;;;;;;5050443;28;20184;-77
2023/04/24 05:41:50;;;;;;;6.53;5.70;;;10.90;99.90;;;;;;5046024;28;20199;-79
2023/04/24 05:44:16;;;;;;;5.32;4.93;;;11.00;99.90;;;;;;5055822;28;20199;-80
2023/04/24 05:46:41;;;;;;;5.32;4.00;;;11.10;99.90;;;;;;5052542;28;20237;-80
2023/04/24 05:49:07;;;;;;;3.90;3.60;;;11.10;99.90;;;;;;5047739;28;20848;-77
2023/04/24 05:51:33;;;;;;;4.43;3.90;;;11.00;99.90;;;;;;5051435;28;20183;-78
2023/04/24 05:53:58;;;;;;;3.70;3.50;;;11.00;99.90;;;;;;5045369;28;20184;-81
2023/04/24 05:56:24;;;;;;;3.90;3.45;;;11.00;99.90;;;;;;5053163;28;20218;-78
2023/04/24 05:58:49;;;;;;;4.10;3.40;;;11.10;99.90;;;;;;5057247;28;20543;-78
2023/04/24 06:01:15;;;;;;;4.07;3.78;;;11.10;99.90;;;;;;5056906;28;20184;-79
2023/04/24 06:03:41;;;;;;;3.72;3.40;;;11.20;99.90;;;;;;5052282;28;20203;-78
2023/04/24 06:06:07;;;;;;;4.30;4.00;;;11.30;99.90;;;;;;5050691;28;20251;-78
2023/04/24 06:08:34;;;;;;;3.88;3.58;;;11.30;99.90;;;;;;5034735;28;20263;-77
2023/04/24 06:11:00;;;;;;;4.50;4.20;;;11.50;99.90;;;;;;5054185;28;20179;-77
2023/04/24 06:13:25;;;;;;;4.68;4.28;;;11.60;99.90;;;;;;5048226;28;20267;-78
2023/04/24 06:15:52;;;;;;;4.10;3.78;;;11.60;99.90;;;;;;5052517;28;20199;-75
2023/04/24 06:18:18;;;;;;;4.10;3.80;;;11.70;99.90;;;;;;5047591;28;20183;-79
2023/04/24 06:20:44;;;;;;;4.70;3.70;;;11.80;99.90;;;;;;5053816;28;20833;-75
2023/04/24 06:23:10;;;;;;;3.60;3.40;;;11.90;99.90;;;;;;5047035;28;20216;-76
2023/04/24 06:25:36;;;;;;;3.47;3.15;;;12.00;99.90;;;;;;5056185;28;20699;-75
2023/04/24 06:28:02;;;;;;;4.15;3.85;;;12.00;99.90;;;;;;5048508;28;20196;-76
2023/04/24 06:30:28;;;;;;;3.83;3.63;;;12.10;99.90;;;;;;5048999;28;20176;-77
2023/04/24 06:32:53;;;;;;;3.78;3.58;;;12.20;99.90;;;;;;5035614;28;20186;-76
2023/04/24 06:35:19;;;;;;;3.88;3.58;;;12.20;99.90;;;;;;5052835;28;20200;-76
2023/04/24 06:37:45;;;;;;;3.10;2.90;;;12.30;99.90;;;;;;5032656;28;20525;-75
2023/04/24 06:40:11;;;;;;;3.97;3.35;;;12.40;99.90;;;;;;5044095;28;20670;-77
2023/04/24 06:42:37;;;;;;;4.40;3.95;;;12.40;99.90;;;;;;5037810;28;20206;-77
2023/04/24 06:45:03;;;;;;;4.18;3.78;;;12.60;99.90;;;;;;5034956;28;20212;-76
2023/04/24 06:47:29;;;;;;;4.72;3.65;;;12.80;99.90;;;;;;5042181;28;20176;-76
2023/04/24 06:49:55;;;;;;;3.20;3.00;;;13.10;99.90;;;;;;5053628;28;20198;-76
2023/04/24 06:52:21;;;;;;;3.65;3.40;;;13.10;99.90;;;;;;5031406;28;20211;-75
2023/04/24 06:54:46;;;;;;;3.90;3.55;;;13.40;99.90;;;;;;5042276;28;20208;-75
2023/04/24 06:57:12;;;;;;;3.22;3.13;;;13.50;99.90;;;;;;5034556;28;20196;-77
2023/04/24 06:59:38;;;;;;;4.28;3.28;;;13.40;99.90;;;;;;5047195;28;20176;-77
2023/04/24 07:02:04;;;;;;;3.35;3.15;;;13.40;99.90;;;;;;5043429;28;20181;-77
2023/04/24 07:04:30;;;;;;;3.70;3.30;;;13.40;99.90;;;;;;5049155;28;20617;-76
2023/04/24 07:06:57;;;;;;;3.50;3.20;;;13.40;99.90;;;;;;5049405;28;20688;-76
2023/04/24 07:09:25;;;;;;;3.42;3.22;;;13.60;99.90;;;;;;5043555;28;20239;-76
2023/04/24 07:11:51;;;;;;;3.75;3.55;;;13.70;99.90;;;;;;5047737;28;20183;-75
2023/04/24 07:14:17;;;;;;;3.35;3.20;;;13.70;99.90;;;;;;5049361;28;20188;-75
2023/04/24 07:16:43;;;;;;;3.38;3.13;;;13.80;99.90;;;;;;5044435;28;20679;-75
2023/04/24 07:19:09;;;;;;;3.05;2.85;;;13.90;99.90;;;;;;5053986;28;20190;-75
2023/04/24 07:21:34;;;;;;;3.15;2.95;;;13.90;99.90;;;;;;5053351;28;20203;-75
2023/04/24 07:24:00;;;;;;;3.08;2.88;;;14.00;99.90;;;;;;5047800;28;20244;-75
2023/04/24 07:26:28;;;;;;;2.95;2.75;;;14.00;99.90;;;;;;5049799;28;20562;-75
2023/04/24 07:28:53;;;;;;;2.65;2.55;;;14.00;99.90;;;;;;5039075;28;20183;-75
2023/04/24 07:31:19;;;;;;;3.25;2.78;;;14.00;99.90;;;;;;5049490;28;20172;-76
2023/04/24 07:33:45;;;;;;;2.90;2.63;;;14.20;99.90;;;;;;5040989;28;20238;-75
2023/04/24 07:36:15;;;;;;;2.95;2.75;;;14.40;99.90;;;;;;5044844;28;20283;-75
2023/04/24 07:38:47;;;;;;;2.70;2.50;;;14.60;99.90;;;;;;5047750;28;20187;-75
2023/04/24 07:41:13;;;;;;;2.38;2.17;;;14.80;99.90;;;;;;5032443;28;20221;-77
2023/04/24 07:43:39;;;;;;;2.03;2.03;;;14.90;99.90;;;;;;5030527;28;20195;-76
2023/04/24 07:46:06;;;;;;;1.65;1.60;;;15.10;99.90;;;;;;5051915;28;20199;-76
2023/04/24 07:48:31;;;;;;;2.20;1.98;;;15.30;99.90;;;;;;5046475;28;20180;-76
2023/04/24 07:50:57;;;;;;;1.83;1.73;;;15.80;99.90;;;;;;5052127;28;20188;-75
2023/04/24 07:53:23;;;;;;;1.95;1.85;;;15.90;99.90;;;;;;5049646;28;20247;-75
2023/04/24 07:55:48;;;;;;;1.63;1.52;;;15.90;99.90;;;;;;5044736;28;20211;-75
2023/04/24 07:58:15;;;;;;;1.42;1.33;;;16.00;99.90;;;;;;5053635;28;20222;-76
2023/04/24 08:00:40;;;;;;;3.60;1.75;;;15.90;99.90;;;;;;5049679;28;20533;-75
2023/04/24 08:03:06;;;;;;;1.63;1.52;;;16.00;99.90;;;;;;5051044;28;20204;-76
2023/04/24 08:05:31;;;;;;;1.67;1.65;;;16.00;99.90;;;;;;5046507;28;20199;-75
2023/04/24 08:07:58;;;;;;;1.30;1.30;;;15.70;99.90;;;;;;5047513;28;20189;-76
2023/04/24 08:10:24;;;;;;;1.10;1.10;;;15.60;99.90;;;;;;5047797;28;20182;-75
2023/04/24 08:12:50;;;;;;;1.83;1.40;;;15.60;99.90;;;;;;5032194;28;20183;-75
2023/04/24 08:15:16;;;;;;;1.75;1.65;;;15.80;99.90;;;;;;5048706;28;20573;-75
2023/04/24 08:17:42;;;;;;;2.45;1.13;;;16.20;99.90;;;;;;5049460;28;20184;-76
2023/04/24 08:20:13;;;;;;;1.08;1.08;;;16.30;99.90;;;;;;5041460;28;20192;-76
2023/04/24 08:22:39;;;;;;;1.05;0.90;;;16.60;99.90;;;;;;5047818;28;20189;-76
2023/04/24 08:25:06;;;;;;;1.30;1.20;;;16.70;99.90;;;;;;5051466;28;20273;-75
2023/04/24 08:27:31;;;;;;;1.10;1.00;;;16.90;99.90;;;;;;5047722;28;20639;-76
2023/04/24 08:29:58;;;;;;;1.77;1.20;;;17.20;99.90;;;;;;5033121;28;20231;-82
2023/04/24 08:32:24;;;;;;;0.98;0.98;;;17.40;99.90;;;;;;5039702;28;20176;-79
2023/04/24 08:34:52;;;;;;;1.88;0.98;;;17.90;99.90;;;;;;5028939;28;20181;-78
2023/04/24 08:37:18;;;;;;;2.97;1.08;;;18.40;99.90;;;;;;5035626;28;20167;-78
2023/04/24 08:39:43;;;;;;;1.45;1.35;;;16.90;99.90;;;;;;5042478;28;20183;-77
2023/04/24 08:42:11;;;;;;;2.80;1.55;;;14.90;99.90;;;;;;5059279;28;20275;-75
2023/04/24 08:44:37;;;;;;;2.80;1.58;;;13.50;99.90;;;;;;5047836;28;20667;-76
2023/04/24 08:47:03;;;;;;;1.30;1.30;;;12.40;99.90;;;;;;5047533;28;20211;-75
2023/04/24 08:49:29;;;;;;;2.03;1.58;;;11.60;99.90;;;;;;5036207;28;20275;-75
2023/04/24 08:51:55;;;;;;;1.52;1.50;;;11.30;99.90;;;;;;5052689;28;20181;-75
2023/04/24 08:54:21;;;;;;;1.60;1.60;;;11.20;99.90;;;;;;5051140;28;20202;-75
2023/04/24 08:56:48;;;;;;;1.73;1.63;;;11.10;99.90;;;;;;5053870;28;20255;-74
2023/04/24 08:59:15;;;;;;;3.00;1.70;;;11.20;99.90;;;;;;5052436;28;20263;-75
2023/04/24 09:01:41;;;;;;;1.92;1.70;;;11.30;99.90;;;;;;5048851;28;20194;-74
2023/04/24 09:04:12;;;;;;;1.92;1.63;;;11.50;99.90;;;;;;5043603;28;20249;-75
2023/04/24 09:06:38;;;;;;;2.03;1.60;;;11.60;99.90;;;;;;5020457;28;20200;-74
2023/04/24 09:09:05;;;;;;;2.03;1.92;;;12.10;99.90;;;;;;5050135;28;20183;-74
2023/04/24 09:11:32;;;;;;;4.50;2.00;;;12.50;99.90;;;;;;5046579;28;20172;-75
2023/04/24 09:13:58;;;;;;;2.53;1.85;;;12.70;99.90;;;;;;5049597;28;20176;-74
2023/04/24 09:16:25;;;;;;;1.70;1.60;;;12.80;99.90;;;;;;5056135;28;20225;-75
2023/04/24 09:18:52;;;;;;;1.42;1.40;;;13.00;99.90;;;;;;5052347;28;20180;-75
2023/04/24 09:21:20;;;;;;;1.80;1.70;;;13.40;99.90;;;;;;5036307;28;20659;-74
2023/04/24 09:23:45;;;;;;;1.30;1.30;;;14.20;99.90;;;;;;5049622;28;20233;-75
2023/04/24 09:26:11;;;;;;;2.63;1.60;;;15.20;99.90;;;;;;5049245;28;20636;-75
2023/04/24 09:28:39;;;;;;;1.80;1.13;;;16.20;99.90;;;;;;5050121;28;20658;-75
2023/04/24 09:31:05;;;;;;;1.23;1.13;;;17.00;99.90;;;;;;5048184;28;20580;-76
2023/04/24 09:33:31;;;;;;;1.38;1.13;;;17.80;99.90;;;;;;5047794;28;20235;-74
2023/04/24 09:35:57;;;;;;;1.48;1.38;;;17.80;99.90;;;;;;5056658;28;20196;-75
2023/04/24 09:38:37;;;;;;;1.10;1.10;;;17.20;99.90;;;;;;5050123;28;20181;-77
2023/04/24 09:41:06;;;;;;;1.02;1.02;;;16.40;99.90;;;;;;5050471;28;20191;-75
2023/04/24 09:43:31;;;;;;;1.02;1.02;;;15.60;99.90;;;;;;5048611;28;20620;-75
2023/04/24 09:45:59;;;;;;;1.33;1.33;;;16.20;99.90;;;;;;5035225;28;20193;-75
2023/04/24 09:48:35;;;;;;;1.15;1.05;;;18.00;99.90;;;;;;5049346;28;20177;-79
2023/04/24 09:51:03;;;;;;;2.70;1.35;;;20.00;99.90;;;;;;5041263;28;20172;-79
2023/04/24 09:53:31;;;;;;;0.70;0.70;;;19.90;99.90;;;;;;5052033;28;20270;-79
2023/04/24 09:56:18;;;;;;;1.05;1.05;;;20.30;99.90;;;;;;5038625;28;20577;-77
2023/04/24 09:58:46;;;;;;;1.75;1.05;;;20.70;99.90;;;;;;5045497;28;20267;-80
2023/04/24 10:01:12;;;;;;;1.88;0.77;;;20.10;99.90;;;;;;5044898;28;20180;-77
2023/04/24 10:03:41;;;;;;;1.42;1.20;;;18.60;99.90;;;;;;5048075;28;20204;-77
2023/04/24 10:06:10;;;;;;;0.90;0.90;;;18.20;99.90;;;;;;5047575;28;20330;-76
2023/04/24 10:08:37;;;;;;;0.75;0.75;;;17.60;99.90;;;;;;5052775;28;20226;-77
2023/04/24 10:11:03;;;;;;;1.85;1.45;;;16.90;99.90;;;;;;5049704;28;20176;-77
2023/04/24 10:13:28;;;;;;;1.80;0.98;;;16.40;99.90;;;;;;5050443;28;20540;-77
2023/04/24 10:15:56;;;;;;;1.75;1.10;;;15.70;99.90;;;;;;5048481;28;20294;-77
2023/04/24 10:18:21;;;;;;;1.75;1.00;;;15.10;99.90;;;;;;5035034;28;20191;-76
2023/04/24 10:20:47;;;;;;;0.95;0.95;;;15.10;99.90;;;;;;5046989;28;20192;-77
2023/04/24 10:23:13;;;;;;;2.05;1.05;;;15.50;99.90;;;;;;5054024;28;20208;-78
2023/04/24 10:25:39;;;;;;;0.93;0.77;;;15.50;99.90;;;;;;5042778;28;20291;-78
2023/04/24 10:28:05;;;;;;;1.17;1.10;;;15.80;99.90;;;;;;5057591;28;20179;-77
2023/04/24 10:30:36;;;;;;;0.93;0.93;;;15.80;99.90;;;;;;5044679;28;20180;-76
2023/04/24 10:33:04;;;;;;;1.20;1.10;;;16.00;99.90;;;;;;5043910;28;20218;-76
2023/04/24 10:35:35;;;;;;;0.93;0.93;;;16.10;99.90;;;;;;5054331;28;20252;-75
2023/04/24 10:38:10;;;;;;;1.80;1.08;;;15.90;99.90;;;;;;5043665;28;20176;-76
2023/04/24 10:40:36;;;;;;;1.77;0.90;;;15.90;99.90;;;;;;5047791;28;20184;-76
2023/04/24 10:43:09;;;;;;;1.15;1.10;;;15.60;99.90;;;;;;5052375;28;20210;-78
2023/04/24 10:45:35;;;;;;;2.28;1.10;;;15.60;99.90;;;;;;5048163;28;20207;-76
2023/04/24 10:48:10;;;;;;;1.95;1.10;;;15.30;99.90;;;;;;5049553;28;20222;-75
2023/04/24 10:50:47;;;;;;;1.02;0.95;;;15.50;99.90;;;;;;5045899;28;20184;-76
2023/04/24 10:53:18;;;;;;;2.50;1.13;;;15.70;99.90;;;;;;5046869;28;20187;-77
2023/04/24 10:55:50;;;;;;;1.00;1.00;;;16.20;99.40;;;;;;5045800;28;20282;-75
2023/04/24 10:58:21;;;;;;;1.20;1.20;;;17.00;98.00;;;;;;5050096;28;20279;-77
2023/04/24 11:00:59;;;;;;;0.80;0.80;;;17.50;98.40;;;;;;5047562;28;20602;-78
2023/04/24 11:03:29;;;;;;;0.93;0.93;;;18.90;94.50;;;;;;5056116;28;20194;-77
2023/04/24 11:06:02;;;;;;;1.25;1.10;;;19.20;93.00;;;;;;5046875;28;20219;-76
2023/04/24 11:08:38;;;;;;;1.00;0.95;;;19.30;91.20;;;;;;5033977;28;20184;-76
2023/04/24 11:11:14;;;;;;;1.10;0.90;;;18.90;91.00;;;;;;5049811;28;20202;-76
2023/04/24 11:13:55;;;;;;;1.27;0.80;;;18.50;89.30;;;;;;5031149;28;20183;-77
2023/04/24 11:16:25;;;;;;;1.20;1.10;;;17.60;91.90;;;;;;5044282;28;20209;-76
2023/04/24 11:19:11;;;;;;;1.20;1.00;;;16.80;93.10;;;;;;5044648;28;20184;-74
2023/04/24 11:22:01;;;;;;;1.10;1.10;;;16.30;93.50;;;;;;5020814;28;20377;-75
2023/04/24 11:24:37;;;;;;;2.40;1.13;;;16.30;93.20;;;;;;5047793;28;20313;-74
2023/04/24 11:27:19;;;;;;;1.63;0.93;;;16.00;96.30;;;;;;5043569;28;20191;-75
2023/04/24 11:29:48;;;;;;;3.53;1.13;;;15.80;96.60;;;;;;5043331;28;20480;-75
2023/04/24 11:32:38;;;;;;;1.25;1.10;;;15.60;99.90;;;;;;5048441;28;20181;-76
2023/04/24 11:35:17;;;;;;;1.10;1.10;;;14.80;99.90;;;;;;5040980;28;20748;-77
2023/04/24 11:37:49;;;;;;;1.02;1.02;;;14.00;99.90;;;;;;5045921;28;20659;-75
2023/04/24 11:40:16;;;;;;;2.03;1.38;;;13.50;99.90;;;;;;5032397;28;20192;-75
2023/04/24 11:42:46;;;;;;;1.15;1.15;;;13.10;99.90;;;;;;5041817;28;20232;-75
2023/04/24 11:45:14;;;;;;;1.13;1.13;;;12.60;99.90;;;;;;5048850;28;20214;-75
2023/04/24 11:47:40;;;;;;;1.35;1.25;;;12.30;99.90;;;;;;5048886;28;20183;-76
2023/04/24 11:50:35;;;;;;;0.73;0.73;;;12.10;99.90;;;;;;5051583;28;20221;-76
2023/04/24 11:53:00;;;;;;;1.00;1.00;;;12.10;99.90;;;;;;5044892;28;20187;-76
2023/04/24 11:55:28;;;;;;;1.65;1.13;;;12.60;99.90;;;;;;5054170;28;20237;-75
2023/04/24 11:58:00;;;;;;;0.90;0.90;;;13.00;99.90;;;;;;5041931;28;20559;-76
2023/04/24 12:00:34;;;;;;;1.08;1.08;;;14.30;99.90;;;;;;5040813;28;20180;-76
2023/04/24 12:03:09;;;;;;;1.35;1.25;;;16.40;99.90;;;;;;5050775;28;20214;-76
2023/04/24 12:05:35;;;;;;;1.20;1.10;;;19.40;99.90;;;;;;5047196;28;20606;-76
2023/04/24 12:08:01;;;;;;;1.27;1.17;;;20.70;94.10;;;;;;5029576;28;20246;-75
2023/04/24 12:10:29;;;;;;;2.55;1.10;;;22.30;84.00;;;;;;5043762;28;20177;-78
2023/04/24 12:12:57;;;;;;;1.02;1.02;;;23.40;77.90;;;;;;5055803;28;20187;-76
2023/04/24 12:15:23;;;;;;;1.42;1.13;;;23.50;73.90;;;;;;5048468;28;20290;-76
2023/04/24 12:17:52;;;;;;;1.95;1.13;;;23.20;71.20;;;;;;5044371;28;20197;-76
2023/04/24 12:20:23;;;;;;;1.20;1.08;;;23.60;68.60;;;;;;5043969;28;20202;-76
2023/04/24 12:22:53;;;;;;;1.13;1.13;;;22.10;68.30;;;;;;5049047;28;20329;-76
2023/04/24 12:25:20;;;;;;;1.95;0.90;;;20.20;77.30;;;;;;5057570;28;20272;-76
2023/04/24 12:27:46;;;;;;;1.27;1.20;;;19.10;78.30;;;;;;5049326;28;20195;-76
2023/04/24 12:30:17;;;;;;;1.17;1.13;;;18.60;78.00;;;;;;5050339;28;20196;-76
2023/04/24 12:32:47;;;;;;;1.05;1.05;;;17.90;80.70;;;;;;5050045;28;20305;-76
2023/04/24 12:35:13;;;;;;;1.30;1.30;;;18.10;81.80;;;;;;5034056;28;20223;-77
2023/04/24 12:37:42;;;;;;;1.30;1.20;;;18.60;77.80;;;;;;5034234;28;20184;-76
2023/04/24 12:40:12;;;;;;;0.73;0.73;;;20.10;75.50;;;;;;5049156;28;20191;-77
2023/04/24 12:42:45;;;;;;;0.98;0.98;;;22.30;70.30;;;;;;5044471;28;20229;-76